Time;durP1;ratioP1;P1;durP2;ratioP2;P2;SDS_P1;SDS_P2;PMS_P1;PMS_P2;Temp;Humidity;BMP_temperature;BMP_pressure;BME280_temperature;BME280_humidity;BME280_pressure;Samples;Min_cycle;Max_cycle;Signal;HPM_P1;HPM_P2
2023/11/26 00:00:24;;;;;;;5.47;1.67;;;5.60;99.90;;;;;;5047860;28;20024;-43
2023/11/26 00:02:49;;;;;;;5.32;2.15;;;5.60;99.90;;;;;;5047138;28;20077;-62
2023/11/26 00:05:15;;;;;;;11.07;2.33;;;5.50;99.90;;;;;;5046155;28;20033;-44
2023/11/26 00:07:42;;;;;;;13.13;2.00;;;5.50;99.90;;;;;;5047636;28;20024;-43
2023/11/26 00:10:08;;;;;;;7.57;2.00;;;5.40;99.90;;;;;;5047415;28;20025;-44
2023/11/26 00:12:34;;;;;;;9.05;1.95;;;5.40;99.90;;;;;;5047460;28;20025;-44
2023/11/26 00:14:59;;;;;;;4.03;2.33;;;5.40;99.90;;;;;;5047770;28;20049;-41
2023/11/26 00:17:25;;;;;;;4.72;2.00;;;5.30;99.90;;;;;;5046784;28;20075;-43
2023/11/26 00:19:51;;;;;;;9.40;2.30;;;5.30;99.90;;;;;;5046899;28;20040;-45
2023/11/26 00:22:16;;;;;;;7.60;2.80;;;5.20;99.90;;;;;;5047656;28;20096;-44
2023/11/26 00:24:42;;;;;;;11.07;1.75;;;5.20;99.90;;;;;;5047360;28;20036;-40
2023/11/26 00:27:09;;;;;;;6.88;2.13;;;5.20;99.90;;;;;;5047428;28;20088;-40
2023/11/26 00:29:40;;;;;;;9.23;3.53;;;5.20;99.90;;;;;;5047218;28;20032;-40
2023/11/26 00:32:09;;;;;;;5.10;2.22;;;5.20;99.90;;;;;;5047133;28;20025;-41
2023/11/26 00:34:37;;;;;;;11.27;1.85;;;5.10;99.90;;;;;;5047363;28;20033;-44
2023/11/26 00:37:03;;;;;;;3.47;1.98;;;5.20;99.90;;;;;;5047139;28;20038;-43
2023/11/26 00:39:29;;;;;;;11.52;1.95;;;5.10;99.90;;;;;;5046457;28;20033;-42
2023/11/26 00:41:56;;;;;;;3.88;1.70;;;5.10;99.90;;;;;;5046405;28;20175;-42
2023/11/26 00:44:25;;;;;;;7.60;2.63;;;5.10;99.90;;;;;;5044892;28;20021;-47
2023/11/26 00:46:54;;;;;;;2.78;1.52;;;5.10;99.90;;;;;;5046530;28;20049;-45
2023/11/26 00:49:20;;;;;;;2.88;1.35;;;5.10;99.90;;;;;;5042455;28;20032;-45
2023/11/26 00:51:46;;;;;;;7.00;1.60;;;5.00;99.90;;;;;;5046802;28;20025;-69
2023/11/26 00:54:11;;;;;;;3.72;2.13;;;5.00;99.90;;;;;;5046788;28;20068;-46
2023/11/26 00:56:37;;;;;;;4.72;1.58;;;5.00;99.90;;;;;;5046549;28;20032;-42
2023/11/26 00:59:03;;;;;;;3.42;1.13;;;5.00;99.90;;;;;;5046332;28;20076;-41
2023/11/26 01:01:29;;;;;;;8.50;1.95;;;5.00;99.90;;;;;;5046074;28;20033;-43
2023/11/26 01:03:57;;;;;;;13.23;3.40;;;5.00;99.90;;;;;;5046794;28;20030;-44
2023/11/26 01:06:23;;;;;;;6.43;1.38;;;5.00;99.90;;;;;;5046432;28;20029;-45
2023/11/26 01:08:49;;;;;;;9.40;1.70;;;5.00;99.90;;;;;;5046237;28;20026;-42
2023/11/26 01:11:41;;;;;;;5.95;1.60;;;5.00;99.90;;;;;;5046465;28;20029;-41
2023/11/26 01:14:07;;;;;;;4.18;1.92;;;5.00;99.90;;;;;;5046617;28;20026;-43
2023/11/26 01:16:33;;;;;;;9.45;2.03;;;5.00;99.90;;;;;;5046167;28;20052;-43
2023/11/26 01:18:59;;;;;;;6.93;2.00;;;5.00;99.90;;;;;;5044342;28;20045;-43
2023/11/26 01:21:25;;;;;;;9.23;2.17;;;5.00;99.90;;;;;;5046487;28;20116;-46
2023/11/26 01:23:53;;;;;;;5.75;1.80;;;4.90;99.90;;;;;;5045840;28;20033;-41
2023/11/26 01:26:18;;;;;;;4.82;1.55;;;5.00;99.90;;;;;;5046455;28;20033;-42
2023/11/26 01:28:44;;;;;;;6.82;1.80;;;4.90;99.90;;;;;;5044689;28;20464;-42
2023/11/26 01:31:11;;;;;;;11.77;2.17;;;4.90;99.90;;;;;;5045804;28;20024;-42
2023/11/26 01:33:36;;;;;;;11.50;2.38;;;4.80;99.90;;;;;;5045844;28;20491;-43
2023/11/26 01:36:07;;;;;;;4.95;1.65;;;4.80;99.90;;;;;;5046270;28;20087;-42
2023/11/26 01:38:33;;;;;;;4.85;1.55;;;4.80;99.90;;;;;;5046118;28;20099;-45
2023/11/26 01:40:58;;;;;;;5.60;1.60;;;4.80;99.90;;;;;;5046159;28;20029;-48
2023/11/26 01:43:25;;;;;;;5.22;1.60;;;4.80;99.90;;;;;;5045663;28;20037;-67
2023/11/26 01:46:03;;;;;;;4.90;1.00;;;4.80;99.90;;;;;;5045339;28;20025;-39
2023/11/26 01:48:28;;;;;;;2.47;1.23;;;4.80;99.90;;;;;;5045677;28;20063;-41
2023/11/26 01:50:55;;;;;;;5.10;1.30;;;4.70;99.90;;;;;;5045812;28;20034;-43
2023/11/26 01:53:20;;;;;;;5.45;1.35;;;4.80;99.90;;;;;;5046001;28;20030;-47
2023/11/26 01:55:46;;;;;;;5.88;1.70;;;4.70;99.90;;;;;;5045581;28;20026;-42
2023/11/26 01:58:12;;;;;;;5.78;1.42;;;4.70;99.90;;;;;;5045731;28;20036;-43
2023/11/26 02:00:38;;;;;;;2.33;1.45;;;4.70;99.90;;;;;;5045653;28;20085;-48
2023/11/26 02:03:04;;;;;;;7.68;1.42;;;4.70;99.90;;;;;;5044428;28;20044;-41
2023/11/26 02:05:30;;;;;;;10.02;1.85;;;4.60;99.90;;;;;;5043060;28;20036;-42
2023/11/26 02:07:56;;;;;;;11.10;1.70;;;4.60;99.90;;;;;;5045551;28;20073;-44
2023/11/26 02:10:23;;;;;;;10.88;2.25;;;4.60;99.90;;;;;;5045486;28;20467;-43
2023/11/26 02:13:06;;;;;;;11.00;2.42;;;4.60;99.90;;;;;;5045092;28;20017;-42
2023/11/26 02:15:35;;;;;;;5.28;1.55;;;4.60;99.90;;;;;;5045839;28;20551;-42
2023/11/26 02:18:01;;;;;;;4.80;2.08;;;4.60;99.90;;;;;;5045067;28;20048;-45
2023/11/26 02:20:27;;;;;;;5.22;1.60;;;4.50;99.90;;;;;;5045086;28;20021;-42
2023/11/26 02:22:53;;;;;;;5.45;1.98;;;4.50;99.90;;;;;;5043822;28;20037;-42
2023/11/26 02:25:23;;;;;;;8.13;1.85;;;4.50;99.90;;;;;;5044163;28;20103;-42
2023/11/26 02:27:52;;;;;;;5.85;1.65;;;4.50;99.90;;;;;;5045656;28;20097;-47
2023/11/26 02:30:20;;;;;;;6.10;1.35;;;4.50;99.90;;;;;;5048144;28;20120;-41
2023/11/26 02:32:49;;;;;;;4.80;1.00;;;4.50;99.90;;;;;;5047949;28;20029;-46
2023/11/26 02:35:15;;;;;;;4.22;1.58;;;4.50;99.90;;;;;;5049366;28;20391;-42
2023/11/26 02:37:40;;;;;;;5.47;1.73;;;4.40;99.90;;;;;;5049518;28;20029;-42
2023/11/26 02:40:07;;;;;;;2.47;0.90;;;4.40;99.90;;;;;;5049561;28;20368;-59
2023/11/26 02:42:33;;;;;;;2.30;1.27;;;4.40;99.90;;;;;;5048877;28;20094;-43
2023/11/26 02:45:03;;;;;;;5.35;1.67;;;4.40;99.90;;;;;;5049333;28;20049;-43
2023/11/26 02:47:29;;;;;;;5.75;1.30;;;4.40;99.90;;;;;;5048848;28;20022;-40
2023/11/26 02:49:55;;;;;;;3.72;1.42;;;4.40;99.90;;;;;;5049084;28;20052;-43
2023/11/26 02:52:20;;;;;;;3.92;1.20;;;4.40;99.90;;;;;;5048999;28;20028;-41
2023/11/26 02:54:46;;;;;;;7.22;1.27;;;4.40;99.90;;;;;;5048988;28;20377;-42
2023/11/26 02:57:12;;;;;;;3.47;1.30;;;4.40;99.90;;;;;;5049080;28;20128;-43
2023/11/26 02:59:39;;;;;;;3.22;1.73;;;4.50;99.90;;;;;;5048922;28;20025;-41
2023/11/26 03:02:05;;;;;;;7.45;1.40;;;4.60;99.90;;;;;;5047831;28;20052;-43
2023/11/26 03:04:31;;;;;;;3.05;1.20;;;4.60;99.90;;;;;;5028954;28;20038;-41
2023/11/26 03:06:58;;;;;;;2.03;1.02;;;4.60;99.90;;;;;;5044232;28;20045;-42
2023/11/26 03:14:53;;;;;;;10.70;1.02;;;4.80;99.90;;;;;;5043158;28;20052;-43
2023/11/26 03:17:19;;;;;;;2.08;1.02;;;4.90;99.90;;;;;;5037220;28;20029;-43
2023/11/26 03:19:46;;;;;;;3.05;0.88;;;4.90;99.90;;;;;;5047658;28;20026;-41
2023/11/26 03:22:11;;;;;;;5.78;0.75;;;5.00;99.90;;;;;;5047948;28;20371;-41
2023/11/26 03:24:37;;;;;;;2.60;0.60;;;5.00;99.90;;;;;;5048450;28;20021;-41
2023/11/26 03:27:03;;;;;;;5.95;1.42;;;5.00;99.90;;;;;;5048488;28;20101;-46
2023/11/26 03:29:29;;;;;;;6.85;0.90;;;5.10;99.90;;;;;;5048188;28;20037;-42
2023/11/26 03:31:55;;;;;;;5.03;0.70;;;5.10;99.90;;;;;;5048132;28;20025;-41
2023/11/26 03:34:23;;;;;;;1.25;0.50;;;5.10;99.90;;;;;;5047850;28;20033;-43
2023/11/26 03:36:49;;;;;;;0.57;0.57;;;5.10;99.90;;;;;;5048313;28;20037;-45
2023/11/26 03:39:18;;;;;;;3.30;1.30;;;5.10;99.90;;;;;;5046836;28;20045;-42
2023/11/26 03:41:44;;;;;;;5.15;0.75;;;5.10;99.90;;;;;;5046847;28;20049;-42
2023/11/26 03:44:10;;;;;;;1.77;0.52;;;5.10;99.90;;;;;;5046897;28;20045;-52
2023/11/26 03:46:38;;;;;;;4.80;0.77;;;5.10;99.90;;;;;;5048152;28;20026;-54
2023/11/26 03:49:04;;;;;;;1.38;0.65;;;5.10;99.90;;;;;;5080161;28;20096;-53
2023/11/26 03:51:30;;;;;;;6.65;0.65;;;5.10;99.90;;;;;;5048203;28;20025;-53
2023/11/26 03:53:55;;;;;;;4.95;0.80;;;5.20;99.90;;;;;;5047608;28;20102;-54
2023/11/26 03:56:21;;;;;;;2.05;1.50;;;5.20;99.90;;;;;;5047454;28;20025;-55
2023/11/26 03:58:47;;;;;;;6.18;0.80;;;5.30;99.90;;;;;;5048041;28;20033;-52
2023/11/26 04:01:12;;;;;;;6.57;1.02;;;5.30;99.90;;;;;;5047773;28;20032;-52
2023/11/26 04:03:38;;;;;;;2.67;0.82;;;5.30;99.90;;;;;;5047334;28;20064;-51
2023/11/26 04:06:04;;;;;;;4.68;0.88;;;5.40;99.90;;;;;;5047500;28;20026;-49
2023/11/26 04:08:30;;;;;;;1.77;0.52;;;5.40;99.90;;;;;;5047971;28;20048;-54
2023/11/26 04:10:56;;;;;;;2.17;0.75;;;5.40;99.90;;;;;;5046333;28;20026;-51
2023/11/26 04:13:22;;;;;;;4.00;1.02;;;5.50;99.90;;;;;;5047508;28;20022;-52
2023/11/26 04:15:54;;;;;;;5.30;0.88;;;5.50;99.90;;;;;;5047857;28;20039;-54
2023/11/26 04:18:21;;;;;;;1.38;0.40;;;5.50;99.90;;;;;;5046896;28;20037;-54
2023/11/26 04:20:47;;;;;;;1.98;0.43;;;5.60;99.90;;;;;;5047173;28;20092;-59
2023/11/26 04:23:14;;;;;;;3.85;0.77;;;5.60;99.90;;;;;;5045828;28;20021;-51
2023/11/26 04:25:40;;;;;;;4.03;1.77;;;5.70;99.90;;;;;;5047307;28;20118;-55
2023/11/26 04:28:06;;;;;;;2.75;0.70;;;5.70;99.90;;;;;;5046007;28;20022;-54
2023/11/26 04:30:31;;;;;;;1.92;1.13;;;5.70;99.90;;;;;;5047461;28;20021;-54
2023/11/26 04:33:00;;;;;;;3.10;0.52;;;5.70;99.90;;;;;;5046807;28;20558;-46
2023/11/26 04:35:25;;;;;;;7.45;2.20;;;5.70;99.90;;;;;;5045869;28;20411;-41
2023/11/26 04:37:51;;;;;;;6.90;1.70;;;5.70;99.90;;;;;;5046961;28;20037;-40
2023/11/26 04:40:17;;;;;;;12.68;1.88;;;5.70;99.90;;;;;;5046572;28;20034;-43
2023/11/26 04:42:43;;;;;;;4.78;0.90;;;5.80;99.90;;;;;;5046588;28;20033;-53
2023/11/26 04:45:10;;;;;;;5.70;1.33;;;5.80;99.90;;;;;;5046698;28;20436;-53
2023/11/26 04:47:35;;;;;;;5.32;1.75;;;5.80;99.90;;;;;;5046949;28;20075;-53
2023/11/26 04:50:02;;;;;;;11.32;1.67;;;5.80;99.90;;;;;;5045565;28;20116;-52
2023/11/26 04:52:28;;;;;;;4.63;0.90;;;5.90;99.90;;;;;;5045700;28;20038;-50
2023/11/26 04:54:54;;;;;;;1.85;0.77;;;5.80;99.90;;;;;;5046244;28;20110;-54
2023/11/26 04:57:19;;;;;;;1.73;0.70;;;5.90;99.90;;;;;;5046588;28;20036;-51
2023/11/26 04:59:45;;;;;;;4.30;0.98;;;5.90;99.90;;;;;;5046985;28;20033;-52
2023/11/26 05:02:13;;;;;;;4.15;0.60;;;5.90;99.90;;;;;;5045754;28;20479;-59
2023/11/26 05:04:39;;;;;;;2.08;0.70;;;5.90;99.90;;;;;;5045798;28;20021;-64
2023/11/26 05:07:05;;;;;;;2.13;0.65;;;5.90;99.90;;;;;;5046499;28;20080;-54
2023/11/26 05:09:32;;;;;;;0.90;0.63;;;6.00;99.90;;;;;;5045894;28;20483;-51
2023/11/26 05:11:58;;;;;;;2.45;0.82;;;6.00;99.90;;;;;;5045742;28;20029;-51
2023/11/26 05:14:24;;;;;;;2.83;0.73;;;6.00;99.90;;;;;;5046710;28;20045;-53
2023/11/26 05:16:50;;;;;;;8.73;0.70;;;6.00;99.90;;;;;;5046319;28;20052;-52
2023/11/26 05:19:15;;;;;;;1.55;0.65;;;6.10;99.90;;;;;;5046443;28;20052;-51
2023/11/26 05:21:42;;;;;;;1.55;0.63;;;6.10;99.90;;;;;;5045894;28;20088;-51
2023/11/26 05:24:08;;;;;;;5.70;0.65;;;6.10;99.90;;;;;;5046479;28;20030;-53
2023/11/26 05:26:34;;;;;;;4.95;0.70;;;6.10;99.90;;;;;;5044624;28;20094;-52
2023/11/26 05:29:00;;;;;;;2.10;0.70;;;6.10;99.90;;;;;;5046381;28;20033;-51
2023/11/26 05:31:25;;;;;;;1.88;0.60;;;6.10;99.90;;;;;;5045524;28;20033;-51
2023/11/26 05:33:54;;;;;;;3.15;0.65;;;6.10;99.90;;;;;;5046131;28;20057;-50
2023/11/26 05:36:20;;;;;;;3.75;1.40;;;6.10;99.90;;;;;;5045908;28;20100;-44
2023/11/26 05:38:46;;;;;;;8.10;0.98;;;6.10;99.90;;;;;;5046250;28;20038;-49
2023/11/26 05:41:12;;;;;;;4.03;0.47;;;6.20;99.90;;;;;;5045839;28;20026;-47
2023/11/26 05:43:37;;;;;;;6.03;0.65;;;6.20;99.90;;;;;;5046120;28;20249;-51
2023/11/26 05:46:07;;;;;;;2.67;0.80;;;6.20;99.90;;;;;;5045686;28;20427;-62
2023/11/26 05:48:33;;;;;;;1.60;0.80;;;6.30;99.90;;;;;;5045268;28;20029;-48
2023/11/26 05:50:59;;;;;;;1.50;0.90;;;6.30;99.90;;;;;;5046060;28;20037;-50
2023/11/26 05:53:25;;;;;;;1.63;0.57;;;6.30;99.90;;;;;;5046012;28;20029;-53
2023/11/26 05:55:51;;;;;;;0.75;0.57;;;6.30;99.90;;;;;;5044827;28;20377;-52
2023/11/26 05:58:16;;;;;;;2.97;0.98;;;6.30;99.90;;;;;;5044503;28;20037;-53
2023/11/26 06:00:43;;;;;;;3.45;0.65;;;6.40;99.90;;;;;;5045015;28;20041;-50
2023/11/26 06:03:09;;;;;;;1.85;0.55;;;6.30;99.90;;;;;;5045349;28;20033;-54
2023/11/26 06:05:35;;;;;;;7.68;0.63;;;6.30;99.90;;;;;;5044948;28;20487;-50
2023/11/26 06:08:03;;;;;;;3.45;0.57;;;6.40;99.90;;;;;;5045965;28;20045;-51
2023/11/26 06:10:29;;;;;;;2.95;0.63;;;6.40;99.90;;;;;;5044913;28;20033;-52
2023/11/26 06:12:55;;;;;;;2.38;1.02;;;6.30;99.90;;;;;;5026071;28;20060;-52
2023/11/26 06:15:21;;;;;;;5.35;0.73;;;6.40;99.90;;;;;;5030312;28;20026;-51
2023/11/26 06:17:46;;;;;;;3.47;0.60;;;6.40;99.90;;;;;;5044377;28;20526;-52
2023/11/26 06:20:13;;;;;;;4.53;0.70;;;6.40;99.90;;;;;;5045332;28;20084;-50
2023/11/26 06:22:39;;;;;;;4.22;0.50;;;6.40;99.90;;;;;;5045725;28;20057;-52
2023/11/26 06:25:10;;;;;;;5.88;1.00;;;6.40;99.90;;;;;;5045195;28;20037;-49
2023/11/26 06:27:37;;;;;;;5.68;0.50;;;6.40;99.90;;;;;;5045581;28;20048;-51
2023/11/26 06:30:06;;;;;;;0.60;0.57;;;6.40;99.90;;;;;;5045776;28;20025;-50
2023/11/26 06:32:32;;;;;;;2.83;0.50;;;6.40;99.90;;;;;;5044764;28;20036;-58
2023/11/26 06:34:57;;;;;;;2.20;0.47;;;6.40;99.90;;;;;;5044117;28;20025;-47
2023/11/26 06:37:24;;;;;;;2.78;0.60;;;6.40;99.90;;;;;;5045062;28;20053;-49
2023/11/26 06:39:50;;;;;;;2.53;0.67;;;6.40;99.90;;;;;;5045605;28;20034;-49
2023/11/26 06:42:16;;;;;;;11.57;0.70;;;6.40;99.90;;;;;;5045291;28;20033;-51
2023/11/26 06:44:41;;;;;;;3.75;1.08;;;6.40;99.90;;;;;;5044341;28;20083;-51
2023/11/26 06:47:07;;;;;;;5.57;0.95;;;6.50;99.90;;;;;;5044860;28;20033;-52
2023/11/26 06:49:33;;;;;;;0.82;0.77;;;6.50;99.90;;;;;;5045471;28;20439;-51
2023/11/26 06:51:58;;;;;;;4.18;0.55;;;6.50;99.90;;;;;;5043850;28;20021;-52
2023/11/26 06:54:24;;;;;;;6.03;0.75;;;6.50;99.90;;;;;;5045375;28;20403;-49
2023/11/26 06:56:49;;;;;;;4.78;0.70;;;6.50;99.90;;;;;;5044715;28;20144;-53
2023/11/26 06:59:15;;;;;;;4.53;0.60;;;6.40;99.90;;;;;;5044052;28;20425;-51
2023/11/26 07:01:41;;;;;;;4.97;0.73;;;6.40;99.90;;;;;;5044884;28;20076;-52
2023/11/26 07:04:06;;;;;;;5.28;0.68;;;6.40;99.90;;;;;;5045415;28;20030;-50
2023/11/26 07:06:32;;;;;;;0.43;0.30;;;6.40;99.90;;;;;;5043702;28;20037;-50
2023/11/26 07:09:00;;;;;;;1.55;0.40;;;6.40;99.90;;;;;;5045148;28;20044;-50
2023/11/26 07:11:26;;;;;;;6.05;0.80;;;6.40;99.90;;;;;;5044478;28;20471;-50
2023/11/26 07:13:52;;;;;;;0.95;0.85;;;6.40;99.90;;;;;;5043833;28;20021;-51
2023/11/26 07:16:19;;;;;;;6.70;0.60;;;6.40;99.90;;;;;;5045899;28;20105;-47
2023/11/26 07:18:45;;;;;;;2.05;0.80;;;6.40;99.90;;;;;;5047440;28;20105;-52
2023/11/26 07:21:11;;;;;;;3.72;0.60;;;6.40;99.90;;;;;;5048894;28;20036;-53
2023/11/26 07:23:39;;;;;;;10.05;0.90;;;6.40;99.90;;;;;;5047529;28;20034;-53
2023/11/26 07:26:18;;;;;;;4.75;0.60;;;6.40;99.90;;;;;;5046674;28;20412;-51
2023/11/26 07:28:50;;;;;;;2.22;0.80;;;6.50;99.90;;;;;;5048594;28;20025;-53
2023/11/26 07:31:27;;;;;;;7.82;1.23;;;6.50;99.90;;;;;;5047428;28;20026;-53
2023/11/26 07:33:53;;;;;;;2.15;1.30;;;6.50;99.90;;;;;;5078790;28;20120;-51
2023/11/26 07:36:23;;;;;;;7.75;1.08;;;6.50;99.90;;;;;;5048457;28;20026;-53
2023/11/26 07:38:50;;;;;;;4.45;0.90;;;6.50;99.90;;;;;;5048361;28;20116;-52
2023/11/26 07:41:16;;;;;;;4.07;0.98;;;6.50;99.90;;;;;;5047497;28;20025;-49
2023/11/26 07:43:42;;;;;;;5.93;1.02;;;6.60;99.90;;;;;;5048247;28;20075;-52
2023/11/26 07:46:09;;;;;;;2.88;0.88;;;6.60;99.90;;;;;;5047890;28;20052;-53
2023/11/26 07:48:36;;;;;;;2.57;1.17;;;6.60;99.90;;;;;;5048311;28;20029;-52
2023/11/26 07:51:05;;;;;;;5.32;0.90;;;6.60;99.90;;;;;;5046430;28;20018;-54
2023/11/26 07:53:34;;;;;;;1.88;1.00;;;6.60;99.90;;;;;;5046954;28;20028;-48
2023/11/26 07:56:00;;;;;;;4.13;1.27;;;6.70;99.90;;;;;;5047904;28;20029;-51
2023/11/26 07:58:27;;;;;;;0.55;0.40;;;6.70;99.90;;;;;;5047994;28;20036;-52
2023/11/26 08:00:56;;;;;;;9.70;0.85;;;6.70;99.90;;;;;;5047531;28;20522;-51
2023/11/26 08:03:25;;;;;;;8.35;0.98;;;6.70;99.90;;;;;;5079614;28;20053;-46
2023/11/26 08:05:52;;;;;;;1.85;0.82;;;6.70;99.90;;;;;;5047320;28;20025;-50
2023/11/26 08:08:22;;;;;;;4.07;1.10;;;6.80;99.90;;;;;;5047870;28;20172;-53
2023/11/26 08:10:49;;;;;;;3.65;1.13;;;6.80;99.90;;;;;;5047024;28;20021;-52
2023/11/26 08:13:15;;;;;;;3.40;1.00;;;6.80;99.90;;;;;;5047482;28;20021;-53
2023/11/26 08:15:41;;;;;;;2.80;0.60;;;6.90;99.90;;;;;;5047324;28;20113;-54
2023/11/26 08:18:07;;;;;;;8.00;0.77;;;6.90;99.90;;;;;;5047594;28;20041;-49
2023/11/26 08:20:33;;;;;;;2.00;0.70;;;6.90;99.90;;;;;;5046832;28;20037;-52
2023/11/26 08:23:02;;;;;;;15.65;2.25;;;7.00;99.90;;;;;;5047160;28;20079;-53
2023/11/26 08:25:33;;;;;;;4.97;1.15;;;7.00;99.90;;;;;;5048695;28;20037;-52
2023/11/26 08:28:00;;;;;;;6.80;0.85;;;7.00;99.90;;;;;;5046192;28;20034;-54
2023/11/26 08:30:32;;;;;;;7.77;1.10;;;7.00;99.90;;;;;;5045768;28;20494;-54
2023/11/26 08:33:05;;;;;;;3.03;0.60;;;7.00;99.90;;;;;;5047474;28;20025;-52
2023/11/26 08:35:32;;;;;;;5.00;1.10;;;7.10;99.90;;;;;;5047411;28;20029;-53
2023/11/26 08:38:02;;;;;;;2.42;1.23;;;7.10;99.90;;;;;;5047389;28;20095;-54
2023/11/26 08:40:34;;;;;;;0.63;0.60;;;7.10;99.90;;;;;;5046769;28;20036;-52
2023/11/26 08:43:04;;;;;;;4.20;1.00;;;7.10;99.90;;;;;;5047296;28;20025;-39
2023/11/26 08:45:32;;;;;;;6.43;1.38;;;7.20;99.90;;;;;;5046817;28;20495;-40
2023/11/26 08:47:59;;;;;;;4.82;1.20;;;7.30;99.90;;;;;;5045801;28;20083;-40
2023/11/26 08:50:25;;;;;;;2.47;0.90;;;7.30;99.90;;;;;;5045616;28;20498;-41
2023/11/26 08:52:55;;;;;;;3.45;0.85;;;7.40;99.90;;;;;;5047069;28;20025;-39
2023/11/26 08:55:21;;;;;;;4.50;1.13;;;7.40;99.90;;;;;;5046592;28;20048;-40
2023/11/26 08:57:46;;;;;;;5.72;1.25;;;7.50;99.90;;;;;;5047027;28;20018;-41
2023/11/26 09:00:12;;;;;;;4.30;1.15;;;7.60;99.90;;;;;;5046439;28;20029;-39
2023/11/26 09:02:40;;;;;;;2.92;0.88;;;7.60;99.90;;;;;;5046621;28;20025;-40
2023/11/26 09:05:09;;;;;;;4.85;1.60;;;7.70;99.90;;;;;;5046779;28;20076;-41
2023/11/26 09:07:44;;;;;;;1.83;1.08;;;7.70;99.90;;;;;;5046436;28;20090;-44
2023/11/26 09:10:11;;;;;;;5.47;1.08;;;7.70;99.90;;;;;;5046352;28;20018;-41
2023/11/26 09:12:37;;;;;;;1.98;0.88;;;7.70;99.90;;;;;;5046336;28;20021;-40
2023/11/26 09:15:05;;;;;;;6.85;1.80;;;7.80;99.90;;;;;;5045937;28;20032;-52
2023/11/26 09:17:31;;;;;;;5.20;1.38;;;7.80;99.90;;;;;;5045218;28;20049;-40
2023/11/26 09:19:57;;;;;;;7.15;2.15;;;7.90;99.90;;;;;;5078217;28;20051;-40
2023/11/26 09:22:23;;;;;;;4.57;1.30;;;7.90;99.90;;;;;;5046034;28;20044;-39
2023/11/26 09:24:48;;;;;;;9.70;1.45;;;8.00;99.90;;;;;;5046314;28;20030;-39
2023/11/26 09:27:15;;;;;;;6.47;1.63;;;8.00;99.90;;;;;;5045388;28;20029;-40
2023/11/26 09:29:41;;;;;;;1.77;0.95;;;8.10;99.90;;;;;;5046304;28;20383;-42
2023/11/26 09:32:06;;;;;;;6.63;1.17;;;8.20;99.90;;;;;;5045910;28;20033;-41
2023/11/26 09:34:32;;;;;;;3.65;1.00;;;8.20;99.90;;;;;;5044990;28;20025;-40
2023/11/26 09:37:04;;;;;;;0.68;0.63;;;8.30;99.90;;;;;;5046442;28;20411;-38
2023/11/26 09:39:33;;;;;;;5.95;1.67;;;8.40;99.90;;;;;;5045758;28;20116;-41
2023/11/26 09:42:00;;;;;;;7.15;1.10;;;8.40;99.90;;;;;;5045531;28;20033;-43
2023/11/26 09:44:26;;;;;;;5.43;1.23;;;8.40;99.90;;;;;;5046285;28;20033;-41
2023/11/26 09:46:52;;;;;;;5.07;1.08;;;8.40;99.90;;;;;;5045696;28;20060;-41
2023/11/26 09:49:18;;;;;;;3.30;1.85;;;8.50;99.90;;;;;;5044757;28;20021;-40
2023/11/26 09:51:46;;;;;;;4.00;1.27;;;8.50;99.90;;;;;;5044321;28;20029;-40
2023/11/26 09:54:13;;;;;;;;;;;8.50;99.90;;;;;;5046047;28;20053;-42
2023/11/26 09:56:39;;;;;;;3.00;1.40;;;8.50;99.90;;;;;;5045476;28;19999;-42
2023/11/26 09:59:21;;;;;;;5.55;1.08;;;8.60;99.90;;;;;;5045779;28;20326;-40
2023/11/26 10:01:47;;;;;;;2.03;1.10;;;8.50;99.90;;;;;;5038293;28;20052;-43
2023/11/26 10:04:13;;;;;;;3.10;1.00;;;8.60;99.90;;;;;;5045693;28;20025;-42
2023/11/26 10:06:38;;;;;;;2.00;1.17;;;8.60;99.90;;;;;;5044294;28;20034;-41
2023/11/26 10:09:16;;;;;;;5.15;1.33;;;8.60;99.90;;;;;;5045911;28;20025;-40
2023/11/26 10:11:42;;;;;;;7.88;2.28;;;8.70;99.90;;;;;;5045890;28;20104;-41
2023/11/26 10:14:18;;;;;;;9.85;1.52;;;8.70;99.90;;;;;;5045559;28;20028;-40
2023/11/26 10:16:44;;;;;;;8.38;1.10;;;8.70;99.90;;;;;;5045070;28;20030;-40
2023/11/26 10:19:27;;;;;;;1.95;1.38;;;8.70;99.90;;;;;;5045532;28;20045;-40
2023/11/26 10:21:54;;;;;;;7.50;1.67;;;8.80;99.90;;;;;;5045217;28;20033;-40
2023/11/26 10:24:23;;;;;;;6.25;1.15;;;8.80;99.90;;;;;;5044824;28;20452;-40
2023/11/26 10:26:52;;;;;;;6.95;2.13;;;8.90;99.90;;;;;;5044727;28;20026;-41
2023/11/26 10:29:21;;;;;;;5.03;1.70;;;8.90;99.90;;;;;;5045302;28;20053;-40
2023/11/26 10:32:00;;;;;;;6.88;1.90;;;8.90;99.90;;;;;;5045255;28;20060;-41
2023/11/26 10:34:26;;;;;;;3.97;2.00;;;8.90;99.90;;;;;;5044137;28;20100;-52
2023/11/26 10:36:52;;;;;;;8.43;2.22;;;8.90;99.90;;;;;;5045050;28;20033;-53
2023/11/26 10:39:18;;;;;;;9.68;2.47;;;8.90;99.90;;;;;;5043530;28;20029;-53
2023/11/26 10:41:47;;;;;;;3.08;1.88;;;8.90;99.90;;;;;;5045171;28;20087;-51
2023/11/26 10:44:17;;;;;;;3.05;1.65;;;8.90;99.90;;;;;;5045561;28;20501;-54
2023/11/26 10:46:48;;;;;;;5.43;1.95;;;9.00;99.90;;;;;;5043205;28;20033;-54
2023/11/26 10:49:28;;;;;;;6.53;1.48;;;9.10;99.90;;;;;;5044174;28;20028;-52
2023/11/26 10:52:04;;;;;;;3.50;1.83;;;9.10;99.90;;;;;;5046335;28;20033;-55
2023/11/26 10:54:43;;;;;;;6.18;1.55;;;9.20;99.90;;;;;;5016944;28;20113;-53
2023/11/26 10:57:11;;;;;;;;;;;9.30;99.90;;;;;;5047863;28;20040;-51
2023/11/26 10:59:43;;;;;;;1.70;1.02;;;9.30;99.90;;;;;;5048375;28;19908;-47
2023/11/26 11:02:13;;;;;;;3.92;1.17;;;9.40;99.90;;;;;;5048400;28;20025;-55
2023/11/26 11:04:43;;;;;;;4.00;1.38;;;9.40;99.90;;;;;;5049169;28;20018;-52
2023/11/26 11:07:10;;;;;;;4.88;1.40;;;9.40;99.90;;;;;;5048753;28;20026;-50
2023/11/26 11:09:47;;;;;;;8.43;1.55;;;9.40;99.90;;;;;;5048710;28;20068;-53
2023/11/26 11:12:15;;;;;;;4.30;0.93;;;9.40;99.90;;;;;;5048748;28;20039;-53
2023/11/26 11:14:41;;;;;;;5.95;0.95;;;9.30;99.90;;;;;;5048978;28;20033;-51
2023/11/26 11:17:08;;;;;;;6.82;1.33;;;9.30;99.90;;;;;;5047682;28;20034;-52
2023/11/26 11:19:50;;;;;;;4.97;0.68;;;9.30;99.90;;;;;;5048506;28;20049;-52
2023/11/26 11:22:16;;;;;;;2.03;0.82;;;9.20;99.90;;;;;;5048650;28;20021;-51
2023/11/26 11:24:43;;;;;;;4.72;1.45;;;9.20;99.90;;;;;;5047839;28;20052;-51
2023/11/26 11:27:09;;;;;;;7.90;1.40;;;9.20;99.90;;;;;;5048551;28;20030;-52
2023/11/26 11:29:35;;;;;;;4.78;1.60;;;9.20;99.90;;;;;;5046823;28;20116;-51
2023/11/26 11:32:02;;;;;;;5.95;1.63;;;9.20;99.90;;;;;;5047251;28;20021;-54
2023/11/26 11:34:31;;;;;;;7.40;1.75;;;9.20;99.90;;;;;;5048142;28;20029;-57
2023/11/26 11:37:01;;;;;;;4.75;1.17;;;9.00;99.90;;;;;;5047219;28;20030;-49
2023/11/26 11:39:49;;;;;;;1.95;1.10;;;9.00;99.90;;;;;;5047898;28;20081;-52
2023/11/26 11:42:21;;;;;;;5.25;1.00;;;9.00;99.90;;;;;;5048355;28;20112;-52
2023/11/26 11:44:47;;;;;;;4.22;1.52;;;9.00;99.90;;;;;;5047945;28;20029;-53
2023/11/26 11:47:40;;;;;;;3.00;1.65;;;9.10;99.90;;;;;;5047818;28;20088;-45
2023/11/26 11:50:07;;;;;;;5.57;1.90;;;9.10;99.90;;;;;;5035283;28;20036;-53
2023/11/26 11:52:33;;;;;;;6.60;1.83;;;9.10;99.90;;;;;;5047002;28;20029;-55
2023/11/26 11:55:04;;;;;;;3.50;1.58;;;9.20;99.90;;;;;;5046934;28;20072;-56
2023/11/26 11:57:45;;;;;;;3.95;1.42;;;9.20;99.90;;;;;;5047760;28;20029;-51
2023/11/26 12:00:12;;;;;;;3.33;1.80;;;9.20;99.90;;;;;;5028054;28;20078;-55
2023/11/26 12:02:41;;;;;;;4.53;1.10;;;9.30;99.90;;;;;;5046512;28;20458;-53
2023/11/26 12:05:21;;;;;;;11.43;1.92;;;9.30;99.90;;;;;;5062745;28;20059;-53
2023/11/26 12:07:51;;;;;;;2.05;1.45;;;9.30;99.90;;;;;;5047910;28;20025;-55
2023/11/26 12:10:27;;;;;;;3.75;2.08;;;9.30;99.90;;;;;;5048022;28;20085;-55
2023/11/26 12:13:03;;;;;;;2.80;1.17;;;9.30;99.90;;;;;;5047668;28;20026;-52
2023/11/26 12:15:30;;;;;;;2.20;1.73;;;9.30;99.90;;;;;;5047869;28;20026;-49
2023/11/26 12:17:57;;;;;;;8.60;1.83;;;9.30;99.90;;;;;;5047017;28;20570;-54
2023/11/26 12:20:24;;;;;;;6.33;1.73;;;9.30;99.90;;;;;;5047230;28;20085;-53
2023/11/26 12:22:51;;;;;;;2.63;1.13;;;9.30;99.90;;;;;;5047727;28;20017;-49
2023/11/26 12:25:21;;;;;;;2.22;1.08;;;9.30;99.90;;;;;;5047533;28;20091;-54
2023/11/26 12:28:08;;;;;;;11.70;3.25;;;9.40;99.90;;;;;;5047245;28;20021;-51
2023/11/26 12:30:39;;;;;;;2.72;1.55;;;9.40;99.90;;;;;;5046461;28;20036;-54
2023/11/26 12:33:07;;;;;;;10.32;1.63;;;9.40;99.90;;;;;;5047424;28;20022;-53
2023/11/26 12:35:33;;;;;;;4.50;0.98;;;9.40;99.90;;;;;;5047468;28;20021;-52
2023/11/26 12:38:01;;;;;;;11.18;2.28;;;9.50;99.90;;;;;;5046972;28;20033;-54
2023/11/26 12:40:28;;;;;;;3.88;1.23;;;9.50;99.90;;;;;;5047236;28;20044;-52
2023/11/26 12:42:54;;;;;;;8.52;1.27;;;9.50;99.90;;;;;;5047020;28;20033;-53
2023/11/26 12:45:20;;;;;;;4.18;1.08;;;9.50;99.90;;;;;;5045919;28;20033;-53
2023/11/26 12:47:50;;;;;;;3.30;1.00;;;9.50;99.90;;;;;;5046617;28;20026;-49
2023/11/26 12:50:16;;;;;;;3.28;1.10;;;9.40;99.90;;;;;;5047249;28;20025;-51
2023/11/26 12:52:41;;;;;;;11.63;1.05;;;9.40;99.90;;;;;;5046981;28;20084;-56
2023/11/26 12:55:09;;;;;;;4.03;1.15;;;9.40;99.90;;;;;;5045980;28;20068;-54
2023/11/26 12:57:42;;;;;;;1.33;0.90;;;9.40;99.90;;;;;;5045338;28;20034;-48
2023/11/26 13:00:10;;;;;;;6.72;1.50;;;9.50;99.90;;;;;;5047142;28;20025;-51
2023/11/26 13:02:43;;;;;;;4.35;1.40;;;9.50;99.90;;;;;;5046727;28;20091;-52
2023/11/26 13:05:30;;;;;;;2.78;1.42;;;9.60;99.90;;;;;;5046566;28;20052;-54